Manokin, Maryland
Current Conditions -  °F | °C
As of 9:54 AM on Friday 28 Nov 2014 (Local Time) from KWAL Reporting Station
Clear Clear  
Wind Chill: 29°   Ceiling: Unl
Heat Index: 38°   Visibility: 10mi
Dew Point: 23°   Wind: 15mph
Humidity: 55%   Direction: 350°N
Pressure: 30.28"   Gusts: NA
Location:  38.11°N, 75.76°W
Report Text: KWAL 281454Z AUTO 35013KT 10SM CLR 03/M05 A3028 RMK AO2 SLP251 T00331050 51013
Loading
Personal Weather Stations






























Interactive Weather Map New forecast layout! Learn more

10-Day Weather Forecast

Advertisements
Track Severe Weather on mobile